createdAt,value
2022-10-27T00:02:16.468Z,11.80
2022-10-27T00:11:13.756Z,11.80
2022-10-27T00:13:45.300Z,11.80
2022-10-27T00:16:37.222Z,11.70
2022-10-27T00:19:16.686Z,11.70
2022-10-27T00:21:53.563Z,11.80
2022-10-27T00:24:56.868Z,11.70
2022-10-27T00:30:17.875Z,11.80
2022-10-27T00:33:05.129Z,11.70
2022-10-27T00:35:45.000Z,11.70
2022-10-27T00:38:19.241Z,11.70
2022-10-27T00:41:07.692Z,11.70
2022-10-27T00:43:55.362Z,11.70
2022-10-27T00:46:41.095Z,11.70
2022-10-27T00:55:45.964Z,11.60
2022-10-27T00:59:02.826Z,11.60
2022-10-27T01:04:34.439Z,11.60
2022-10-27T01:07:31.048Z,11.50
2022-10-27T01:10:03.365Z,11.60
2022-10-27T01:19:35.760Z,11.60
2022-10-27T01:22:46.816Z,11.60
2022-10-27T01:29:14.025Z,11.60
2022-10-27T01:39:28.011Z,11.50
2022-10-27T01:45:18.391Z,11.40
2022-10-27T01:47:47.886Z,11.50
2022-10-27T01:51:01.051Z,11.60
2022-10-27T01:57:04.577Z,11.50
2022-10-27T02:00:42.508Z,11.50
2022-10-27T02:03:57.294Z,11.40
2022-10-27T02:06:43.453Z,11.30
2022-10-27T02:10:05.287Z,11.30
2022-10-27T02:16:13.415Z,11.20
2022-10-27T02:24:41.474Z,11.10
2022-10-27T02:27:40.370Z,11.10
2022-10-27T02:30:16.942Z,11.10
2022-10-27T02:32:49.072Z,11.10
2022-10-27T02:35:24.686Z,11.10
2022-10-27T02:38:15.155Z,11.10
2022-10-27T02:40:48.911Z,11.10
2022-10-27T02:43:27.401Z,11.10
2022-10-27T02:49:07.800Z,11.10
2022-10-27T02:52:07.169Z,11.10
2022-10-27T02:55:11.599Z,11.10
2022-10-27T03:01:30.898Z,11.00
2022-10-27T03:07:18.231Z,10.90
2022-10-27T03:12:41.319Z,11.00
2022-10-27T03:15:15.856Z,11.00
2022-10-27T03:18:01.061Z,11.00
2022-10-27T03:20:55.137Z,11.00
2022-10-27T03:23:29.952Z,11.00
2022-10-27T03:26:01.281Z,10.90
2022-10-27T03:28:46.992Z,10.90
2022-10-27T03:31:33.722Z,10.90
2022-10-27T03:37:14.853Z,10.90
2022-10-27T03:39:58.889Z,10.80
2022-10-27T03:42:52.602Z,10.80
2022-10-27T03:48:28.081Z,10.70
2022-10-27T03:54:17.757Z,10.70
2022-10-27T03:56:53.406Z,10.70
2022-10-27T03:59:33.083Z,10.70
2022-10-27T04:02:17.621Z,10.70
2022-10-27T04:04:56.935Z,10.70
2022-10-27T04:16:24.745Z,10.60
2022-10-27T04:19:43.030Z,10.60
2022-10-27T04:25:07.825Z,10.60
2022-10-27T04:27:55.124Z,10.60
2022-10-27T04:33:38.901Z,10.60
2022-10-27T04:38:59.014Z,10.60
2022-10-27T04:44:23.837Z,10.60
2022-10-27T04:47:01.015Z,10.60
2022-10-27T04:52:43.661Z,10.50
2022-10-27T04:55:33.542Z,10.60
2022-10-27T05:06:51.736Z,10.60
2022-10-27T05:09:58.148Z,10.60
2022-10-27T05:12:47.037Z,10.60
2022-10-27T05:15:19.703Z,10.60
2022-10-27T05:20:52.854Z,10.70
2022-10-27T05:23:32.105Z,10.60
2022-10-27T05:26:18.608Z,10.60
2022-10-27T05:32:05.602Z,10.60
2022-10-27T05:34:54.050Z,10.60
2022-10-27T05:53:19.752Z,10.50
2022-10-27T05:58:41.868Z,10.50
2022-10-27T06:01:08.871Z,10.50
2022-10-27T06:03:35.676Z,10.50
2022-10-27T06:06:06.557Z,10.50
2022-10-27T06:08:37.576Z,10.40
2022-10-27T06:11:17.904Z,10.40
2022-10-27T06:14:11.714Z,10.40
2022-10-27T06:16:55.484Z,10.40
2022-10-27T06:19:37.709Z,10.40
2022-10-27T06:22:26.024Z,10.40
2022-10-27T06:25:08.036Z,10.40
2022-10-27T06:30:41.385Z,10.40
2022-10-27T06:35:54.476Z,10.40
2022-10-27T06:38:21.239Z,10.40
2022-10-27T06:40:48.004Z,10.40
2022-10-27T06:43:15.403Z,10.40
2022-10-27T06:45:47.279Z,10.40
2022-10-27T06:48:14.295Z,10.40
2022-10-27T06:50:41.130Z,10.40
2022-10-27T06:53:08.018Z,10.40
2022-10-27T06:55:35.560Z,10.50
2022-10-27T06:58:02.333Z,10.50
2022-10-27T07:00:29.164Z,10.50
2022-10-27T07:02:59.368Z,10.60
2022-10-27T07:05:26.893Z,10.70
2022-10-27T07:07:59.014Z,10.70
2022-10-27T07:10:25.828Z,10.80
2022-10-27T07:13:02.106Z,10.90
2022-10-27T07:15:33.938Z,10.90
2022-10-27T07:18:08.497Z,10.90
2022-10-27T07:20:36.456Z,11.00
2022-10-27T07:23:03.709Z,11.10
2022-10-27T07:25:32.605Z,11.10
2022-10-27T07:28:04.761Z,11.10
2022-10-27T07:30:40.355Z,11.20
2022-10-27T07:33:10.349Z,11.20
2022-10-27T07:35:39.043Z,11.20
2022-10-27T07:38:08.246Z,11.30
2022-10-27T07:40:37.322Z,11.30
2022-10-27T07:43:07.205Z,11.40
2022-10-27T07:45:38.703Z,11.50
2022-10-27T07:48:07.407Z,11.60
2022-10-27T07:50:37.066Z,11.80
2022-10-27T07:53:05.586Z,11.90
2022-10-27T07:55:37.013Z,12.10
2022-10-27T07:58:15.555Z,12.20
2022-10-27T08:00:48.058Z,12.30
2022-10-27T08:03:22.587Z,12.50
2022-10-27T08:05:50.079Z,12.70
2022-10-27T08:08:16.958Z,12.80
2022-10-27T08:10:46.632Z,13.00
2022-10-27T08:13:13.710Z,13.10
2022-10-27T08:15:42.197Z,13.20
2022-10-27T08:18:10.088Z,13.30
2022-10-27T08:20:43.220Z,13.50
2022-10-27T08:23:17.132Z,13.70
2022-10-27T08:25:47.128Z,13.80
2022-10-27T08:28:16.303Z,14.00
2022-10-27T08:30:51.457Z,14.10
2022-10-27T08:33:20.356Z,14.30
2022-10-27T08:35:47.186Z,14.40
2022-10-27T08:38:16.353Z,14.60
2022-10-27T08:40:57.533Z,14.70
2022-10-27T08:44:01.081Z,14.90
2022-10-27T08:47:00.388Z,15.00
2022-10-27T08:49:34.513Z,15.20
2022-10-27T08:52:08.193Z,15.30
2022-10-27T08:54:37.302Z,15.40
2022-10-27T08:57:05.951Z,15.50
2022-10-27T08:59:34.960Z,15.60
2022-10-27T09:02:07.322Z,15.70
2022-10-27T09:04:44.941Z,15.80
2022-10-27T09:07:39.198Z,15.90
2022-10-27T09:10:33.856Z,16.10
2022-10-27T09:13:21.146Z,16.20
2022-10-27T09:15:50.469Z,16.30
2022-10-27T09:18:48.519Z,16.50
2022-10-27T09:21:20.922Z,16.60
2022-10-27T09:23:52.115Z,16.80
2022-10-27T09:26:23.753Z,16.90
2022-10-27T09:28:55.995Z,16.90
2022-10-27T09:31:33.677Z,17.10
2022-10-27T09:34:29.621Z,17.20
2022-10-27T09:36:58.446Z,17.20
2022-10-27T09:39:25.727Z,17.20
2022-10-27T09:41:55.373Z,17.40
2022-10-27T09:46:56.261Z,17.60
2022-10-27T09:49:34.913Z,17.70
2022-10-27T09:52:15.651Z,17.90
2022-10-27T09:54:55.709Z,17.90
2022-10-27T09:57:29.587Z,18.10
2022-10-27T10:00:04.798Z,18.10
2022-10-27T10:02:34.416Z,18.10
2022-10-27T10:05:06.831Z,18.30
2022-10-27T10:07:39.201Z,18.30
2022-10-27T10:10:27.116Z,18.40
2022-10-27T10:13:04.289Z,18.40
2022-10-27T10:15:48.211Z,18.40
2022-10-27T10:18:33.353Z,18.50
2022-10-27T10:21:08.392Z,18.40
2022-10-27T10:23:47.011Z,18.40
2022-10-27T10:26:25.836Z,18.40
2022-10-27T10:28:56.298Z,18.50
2022-10-27T10:31:28.543Z,18.60
2022-10-27T10:34:03.390Z,18.60
2022-10-27T10:36:37.717Z,18.60
2022-10-27T10:39:30.360Z,18.70
2022-10-27T10:42:18.427Z,18.70
2022-10-27T10:44:49.347Z,18.80
2022-10-27T10:47:28.949Z,18.80
2022-10-27T10:49:59.743Z,19.00
2022-10-27T10:52:37.470Z,19.00
2022-10-27T10:55:20.790Z,19.10
2022-10-27T10:57:51.100Z,19.10
2022-10-27T11:00:22.862Z,19.20
2022-10-27T11:03:15.398Z,19.20
2022-10-27T11:05:42.452Z,19.20
2022-10-27T11:08:24.164Z,19.30
2022-10-27T11:10:53.056Z,19.20
2022-10-27T11:16:10.523Z,19.30
2022-10-27T11:19:02.270Z,19.30
2022-10-27T11:21:41.968Z,19.20
2022-10-27T11:24:18.136Z,19.20
2022-10-27T11:26:53.903Z,19.20
2022-10-27T11:29:49.689Z,19.30
2022-10-27T11:32:34.699Z,19.20
2022-10-27T11:35:16.254Z,19.20
2022-10-27T11:37:49.668Z,19.20
2022-10-27T11:40:34.673Z,19.20
2022-10-27T11:43:26.182Z,19.10
2022-10-27T11:46:21.052Z,19.20
2022-10-27T11:49:03.017Z,19.20
2022-10-27T11:51:32.483Z,19.20
2022-10-27T11:54:02.182Z,19.30
2022-10-27T11:57:11.571Z,19.40
2022-10-27T12:00:06.327Z,19.50
2022-10-27T12:02:50.263Z,19.50
2022-10-27T12:05:36.782Z,19.60
2022-10-27T12:08:49.496Z,19.50
2022-10-27T12:11:38.144Z,19.60
2022-10-27T12:14:07.894Z,19.60
2022-10-27T12:16:49.353Z,19.60
2022-10-27T12:19:22.692Z,19.60
2022-10-27T12:22:03.848Z,19.50
2022-10-27T12:24:56.020Z,19.60
2022-10-27T12:27:45.999Z,19.50
2022-10-27T12:30:17.095Z,19.70
2022-10-27T12:32:56.449Z,19.70
2022-10-27T12:35:42.271Z,19.80
2022-10-27T12:38:39.535Z,19.70
2022-10-27T12:41:20.075Z,19.70
2022-10-27T12:43:49.538Z,19.70
2022-10-27T12:46:37.446Z,19.70
2022-10-27T12:49:19.296Z,19.80
2022-10-27T12:52:21.394Z,19.80
2022-10-27T12:55:05.153Z,19.80
2022-10-27T12:57:35.477Z,19.90
2022-10-27T13:00:15.187Z,19.90
2022-10-27T13:02:57.538Z,19.90
2022-10-27T13:05:34.134Z,19.90
2022-10-27T13:08:06.741Z,19.90
2022-10-27T13:11:04.750Z,20.00
2022-10-27T13:13:52.891Z,20.10
2022-10-27T13:16:39.246Z,20.10
2022-10-27T13:19:44.581Z,20.00
2022-10-27T13:22:30.131Z,20.00
2022-10-27T13:25:12.435Z,19.90
2022-10-27T13:28:02.031Z,19.80
2022-10-27T13:30:32.738Z,19.80
2022-10-27T13:32:59.607Z,19.70
2022-10-27T13:35:31.065Z,19.60
2022-10-27T13:37:59.731Z,19.60
2022-10-27T13:40:26.442Z,19.60
2022-10-27T13:42:55.469Z,19.60
2022-10-27T13:45:28.240Z,19.70
2022-10-27T13:48:11.848Z,19.70
2022-10-27T13:50:47.458Z,19.50
2022-10-27T13:53:22.537Z,19.60
2022-10-27T13:55:59.807Z,19.70
2022-10-27T13:59:13.453Z,19.80
2022-10-27T14:01:49.660Z,19.80
2022-10-27T14:04:34.342Z,19.80
2022-10-27T14:09:56.533Z,19.70
2022-10-27T14:12:37.205Z,19.80
2022-10-27T14:15:30.792Z,19.80
2022-10-27T14:17:59.841Z,19.70
2022-10-27T14:20:38.821Z,19.60
2022-10-27T14:23:14.447Z,19.70
2022-10-27T14:25:43.401Z,19.60
2022-10-27T14:28:19.264Z,19.70
2022-10-27T14:30:47.861Z,19.60
2022-10-27T14:33:29.668Z,19.70
2022-10-27T14:36:29.651Z,19.60
2022-10-27T14:39:34.470Z,19.60
2022-10-27T14:42:06.636Z,19.50
2022-10-27T14:44:35.760Z,19.50
2022-10-27T14:47:07.071Z,19.50
2022-10-27T14:49:46.633Z,19.40
2022-10-27T14:52:47.916Z,19.40
2022-10-27T14:55:21.704Z,19.50
2022-10-27T14:57:51.971Z,19.30
2022-10-27T15:00:25.940Z,19.20
2022-10-27T15:02:54.834Z,19.10
2022-10-27T15:05:46.590Z,19.00
2022-10-27T15:08:20.694Z,19.00
2022-10-27T15:10:49.940Z,19.00
2022-10-27T15:13:25.079Z,18.90
2022-10-27T15:16:04.515Z,19.00
2022-10-27T15:18:44.154Z,18.80
2022-10-27T15:21:16.547Z,18.90
2022-10-27T15:23:50.997Z,18.80
2022-10-27T15:26:34.635Z,18.80
2022-10-27T15:29:12.207Z,18.70
2022-10-27T15:31:43.315Z,18.80
2022-10-27T15:34:39.358Z,18.70
2022-10-27T15:37:37.492Z,18.70
2022-10-27T15:40:39.397Z,18.70
2022-10-27T15:43:30.601Z,18.60
2022-10-27T15:46:35.052Z,18.50
2022-10-27T15:49:40.218Z,18.50
2022-10-27T15:52:18.724Z,18.60
2022-10-27T15:54:51.814Z,18.60
2022-10-27T15:57:32.817Z,18.50
2022-10-27T16:00:25.495Z,18.50
2022-10-27T16:02:59.428Z,18.50
2022-10-27T16:05:32.263Z,18.50
2022-10-27T16:08:14.946Z,18.40
2022-10-27T16:10:44.207Z,18.60
2022-10-27T16:13:19.110Z,18.40
2022-10-27T16:15:48.081Z,18.50
2022-10-27T16:18:20.419Z,18.50
2022-10-27T16:20:47.586Z,18.40
2022-10-27T16:23:16.135Z,18.50
2022-10-27T16:25:45.222Z,18.40
2022-10-27T16:28:28.657Z,18.40
2022-10-27T16:30:55.491Z,18.40
2022-10-27T16:33:23.844Z,18.40
2022-10-27T16:35:51.140Z,18.50
2022-10-27T16:38:18.946Z,18.40
2022-10-27T16:40:47.965Z,18.40
2022-10-27T16:43:31.976Z,18.40
2022-10-27T16:46:02.868Z,18.40
2022-10-27T16:48:32.893Z,18.40
2022-10-27T16:51:03.879Z,18.30
2022-10-27T16:53:30.952Z,18.30
2022-10-27T16:56:05.545Z,18.20
2022-10-27T16:58:42.546Z,18.20
2022-10-27T17:01:12.513Z,18.10
2022-10-27T17:03:39.813Z,18.20
2022-10-27T17:06:07.194Z,18.10
2022-10-27T17:08:35.794Z,18.00
2022-10-27T17:11:14.460Z,17.80
2022-10-27T17:13:41.379Z,17.90
2022-10-27T17:16:11.176Z,17.80
2022-10-27T17:18:39.115Z,17.80
2022-10-27T17:21:06.150Z,17.70
2022-10-27T17:23:34.101Z,17.60
2022-10-27T17:26:06.344Z,17.70
2022-10-27T17:28:34.293Z,17.60
2022-10-27T17:31:12.521Z,17.50
2022-10-27T17:33:40.403Z,17.60
2022-10-27T17:38:39.609Z,17.50
2022-10-27T17:41:08.195Z,17.50
2022-10-27T17:43:37.242Z,17.40
2022-10-27T17:46:08.045Z,17.60
2022-10-27T17:48:37.689Z,17.50
2022-10-27T17:51:18.844Z,17.40
2022-10-27T17:53:46.680Z,17.40
2022-10-27T17:56:18.434Z,17.40
2022-10-27T17:58:47.100Z,17.60
2022-10-27T18:01:22.713Z,17.40
2022-10-27T18:03:52.565Z,17.40
2022-10-27T18:06:27.546Z,17.40
2022-10-27T18:08:57.953Z,17.40
2022-10-27T18:11:31.040Z,17.30
2022-10-27T18:14:03.967Z,17.40
2022-10-27T18:16:33.221Z,17.30
2022-10-27T18:19:01.060Z,17.20
2022-10-27T18:21:30.575Z,17.20
2022-10-27T18:23:59.060Z,17.30
2022-10-27T18:26:31.493Z,17.30
2022-10-27T18:28:58.441Z,17.30
2022-10-27T18:31:27.630Z,17.20
2022-10-27T18:33:54.460Z,17.10
2022-10-27T18:36:26.822Z,17.20
2022-10-27T18:38:55.755Z,17.10
2022-10-27T18:41:24.088Z,17.10
2022-10-27T18:43:52.761Z,17.00
2022-10-27T18:46:20.902Z,17.10
2022-10-27T18:48:49.457Z,17.00
2022-10-27T18:51:20.041Z,17.00
2022-10-27T18:53:47.460Z,17.10
2022-10-27T18:56:15.639Z,17.10
2022-10-27T18:58:43.291Z,17.10
2022-10-27T19:01:13.073Z,17.10
2022-10-27T19:03:40.911Z,17.10
2022-10-27T19:06:09.814Z,17.00
2022-10-27T19:08:37.009Z,17.10
2022-10-27T19:11:06.290Z,17.00
2022-10-27T19:13:33.874Z,17.00
2022-10-27T19:16:02.236Z,17.00
2022-10-27T19:18:34.003Z,16.90
2022-10-27T19:21:02.739Z,17.00
2022-10-27T19:23:31.695Z,16.80
2022-10-27T19:26:10.643Z,16.80
2022-10-27T19:28:39.535Z,16.80
2022-10-27T19:31:07.448Z,16.60
2022-10-27T19:33:34.732Z,16.60
2022-10-27T19:36:22.617Z,16.50
2022-10-27T19:38:51.045Z,16.40
2022-10-27T19:41:20.618Z,16.30
2022-10-27T19:43:49.872Z,16.30
2022-10-27T19:46:20.712Z,16.20
2022-10-27T19:48:51.750Z,16.10
2022-10-27T19:51:22.484Z,16.10
2022-10-27T19:53:50.035Z,16.00
2022-10-27T19:56:18.670Z,16.10
2022-10-27T19:58:50.841Z,16.00
2022-10-27T20:01:23.427Z,16.00
2022-10-27T20:03:50.726Z,16.00
2022-10-27T20:06:17.718Z,16.00
2022-10-27T20:08:45.760Z,15.90
2022-10-27T20:11:15.341Z,15.90
2022-10-27T20:13:48.297Z,15.80
2022-10-27T20:16:20.243Z,15.80
2022-10-27T20:18:48.011Z,15.60
2022-10-27T20:21:15.358Z,15.60
2022-10-27T20:23:42.844Z,15.40
2022-10-27T20:26:28.542Z,15.40
2022-10-27T20:28:56.535Z,15.30
2022-10-27T20:31:23.329Z,15.30
2022-10-27T20:33:50.033Z,15.20
2022-10-27T20:36:16.908Z,15.10
2022-10-27T20:38:44.494Z,15.10
2022-10-27T20:41:13.918Z,15.00
2022-10-27T20:43:41.167Z,15.00
2022-10-27T20:46:09.122Z,15.00
2022-10-27T20:48:36.362Z,15.00
2022-10-27T20:51:04.361Z,14.90
2022-10-27T20:53:33.459Z,14.90
2022-10-27T20:56:03.042Z,14.90
2022-10-27T20:58:30.290Z,14.80
2022-10-27T21:01:16.114Z,14.80
2022-10-27T21:03:43.418Z,14.80
2022-10-27T21:06:11.790Z,14.80
2022-10-27T21:08:38.636Z,14.70
2022-10-27T21:11:07.141Z,14.70
2022-10-27T21:13:34.064Z,14.60
2022-10-27T21:16:00.953Z,14.60
2022-10-27T21:18:27.846Z,14.60
2022-10-27T21:20:54.697Z,14.60
2022-10-27T21:23:21.593Z,14.60
2022-10-27T21:25:48.448Z,14.50
2022-10-27T21:28:15.145Z,14.50
2022-10-27T21:30:41.899Z,14.50
2022-10-27T21:33:08.662Z,14.50
2022-10-27T21:35:35.410Z,14.50
2022-10-27T21:38:03.542Z,14.50
2022-10-27T21:40:30.393Z,14.60
2022-10-27T21:42:57.585Z,14.70
2022-10-27T21:45:24.427Z,14.70
2022-10-27T21:47:54.078Z,14.80
2022-10-27T21:50:21.051Z,14.80
2022-10-27T21:52:47.834Z,14.80
2022-10-27T21:55:14.821Z,14.80
2022-10-27T21:57:43.113Z,14.80
2022-10-27T22:00:11.548Z,14.80
2022-10-27T22:02:38.285Z,14.80
2022-10-27T22:05:05.556Z,14.80
2022-10-27T22:07:32.540Z,14.80
2022-10-27T22:09:59.301Z,14.80
2022-10-27T22:12:26.023Z,14.80
2022-10-27T22:14:52.801Z,14.80
2022-10-27T22:17:19.504Z,14.90
2022-10-27T22:19:46.705Z,14.90
2022-10-27T22:22:13.415Z,14.90
2022-10-27T22:24:40.247Z,14.90
2022-10-27T22:27:07.482Z,14.90
2022-10-27T22:29:34.483Z,14.90
2022-10-27T22:32:01.213Z,14.90
2022-10-27T22:34:28.008Z,14.90
2022-10-27T22:36:54.740Z,14.80
2022-10-27T22:39:22.512Z,14.80
2022-10-27T22:41:49.456Z,14.90
2022-10-27T22:44:16.206Z,14.90
2022-10-27T22:46:44.813Z,14.80
2022-10-27T22:49:11.676Z,14.90
2022-10-27T22:51:38.594Z,14.80
2022-10-27T22:54:06.513Z,14.80
2022-10-27T22:56:34.311Z,14.80
2022-10-27T22:59:03.896Z,14.80
2022-10-27T23:01:35.971Z,14.90
2022-10-27T23:04:04.835Z,14.80
2022-10-27T23:06:36.990Z,14.80
2022-10-27T23:09:06.329Z,14.80
2022-10-27T23:11:37.505Z,14.80
2022-10-27T23:14:09.401Z,14.80
2022-10-27T23:16:36.231Z,14.80
2022-10-27T23:19:04.188Z,14.90
2022-10-27T23:21:32.291Z,14.90
2022-10-27T23:24:00.398Z,14.90
2022-10-27T23:26:36.093Z,14.90
2022-10-27T23:29:05.540Z,14.90
2022-10-27T23:31:32.668Z,14.90
2022-10-27T23:34:02.798Z,14.90
2022-10-27T23:36:31.628Z,14.90
2022-10-27T23:38:58.823Z,14.90
2022-10-27T23:41:26.077Z,14.90
2022-10-27T23:43:54.813Z,14.90
2022-10-27T23:46:22.641Z,14.90
2022-10-27T23:48:50.072Z,14.80
2022-10-27T23:51:16.944Z,14.80
2022-10-27T23:53:46.354Z,14.70
2022-10-27T23:56:13.782Z,14.70
2022-10-27T23:58:42.860Z,14.70
